Time,TemperatureF,DewpointF,PressureIn,WindDirection,WindDirectionDegrees,WindSpeedMPH,WindSpeedGustMPH,Humidity,HourlyPrecipIn,Conditions,Clouds,dailyrainin,SoftwareType,DateUTC
2013-01-03 00:04:00,19.6,-1.3,30.53,WNW,287,0.0,0.0,39,0.00,,,0.00,VWS V14.01,2013-01-03 06:04:00,
2013-01-03 00:09:00,19.4,-1.5,30.53,West,275,0.0,0.0,39,0.00,,,0.00,VWS V14.01,2013-01-03 06:09:00,
2013-01-03 00:14:00,19.2,-1.7,30.53,NW,320,0.0,0.0,39,0.00,,,0.00,VWS V14.01,2013-01-03 06:14:00,
2013-01-03 00:19:00,19.2,-1.1,30.53,WNW,295,0.0,0.0,40,0.00,,,0.00,VWS V14.01,2013-01-03 06:19:00,
2013-01-03 00:24:00,19.0,-1.3,30.53,NW,304,0.0,0.0,40,0.00,,,0.00,VWS V14.01,2013-01-03 06:24:00,
2013-01-03 00:29:00,19.0,-1.3,30.53,WNW,289,0.0,0.0,40,0.00,,,0.00,VWS V14.01,2013-01-03 06:29:00,
2013-01-03 00:34:00,18.9,-0.9,30.53,WNW,296,0.0,0.0,41,0.00,,,0.00,VWS V14.01,2013-01-03 06:34:00,
2013-01-03 00:39:00,18.7,-1.1,30.53,NNW,335,0.0,0.0,41,0.00,,,0.00,VWS V14.01,2013-01-03 06:39:00,
2013-01-03 00:44:00,18.5,-1.8,30.56,WNW,295,0.0,0.0,40,0.00,,,0.00,VWS V14.01,2013-01-03 06:44:00,
2013-01-03 00:49:00,18.5,-2.3,30.56,West,279,0.0,0.0,39,0.00,,,0.00,VWS V14.01,2013-01-03 06:49:00,
2013-01-03 00:54:00,18.3,-2.5,30.56,WNW,288,0.0,0.0,39,0.00,,,0.00,VWS V14.01,2013-01-03 06:54:00,
2013-01-03 00:59:00,18.1,-2.6,30.56,NW,318,0.0,0.0,39,0.00,,,0.00,VWS V14.01,2013-01-03 06:59:00,
2013-01-03 01:04:00,18.1,-2.6,30.56,North,2,0.0,0.0,39,0.00,,,0.00,VWS V14.01,2013-01-03 07:04:00,
2013-01-03 01:09:00,18.1,-2.1,30.56,NW,318,0.0,0.0,40,0.00,,,0.00,VWS V14.01,2013-01-03 07:09:00,
2013-01-03 01:14:00,18.0,-2.8,30.56,NW,318,0.0,0.0,39,0.00,,,0.00,VWS V14.01,2013-01-03 07:14:00,
2013-01-03 01:19:00,18.0,-2.3,30.56,West,281,0.0,0.0,40,0.00,,,0.00,VWS V14.01,2013-01-03 07:19:00,
2013-01-03 01:25:00,17.8,-2.4,30.56,NNW,327,0.0,0.0,40,0.00,,,0.00,VWS V14.01,2013-01-03 07:25:00,
2013-01-03 01:30:00,17.8,-3.0,30.56,West,277,0.0,0.0,39,0.00,,,0.00,VWS V14.01,2013-01-03 07:30:00,
2013-01-03 01:35:00,17.8,-2.4,30.56,NW,318,0.0,0.0,40,0.00,,,0.00,VWS V14.01,2013-01-03 07:35:00,
2013-01-03 01:40:00,17.6,-2.6,30.56,West,277,0.0,0.0,40,0.00,,,0.00,VWS V14.01,2013-01-03 07:40:00,
2013-01-03 01:45:00,17.6,-2.6,30.56,West,277,0.0,0.0,40,0.00,,,0.00,VWS V14.01,2013-01-03 07:45:00,
2013-01-03 01:50:00,17.4,-3.3,30.56,West,277,0.0,0.0,39,0.00,,,0.00,VWS V14.01,2013-01-03 07:50:00,
2013-01-03 01:55:00,17.1,-3.6,30.56,NW,312,0.0,0.0,39,0.00,,,0.00,VWS V14.01,2013-01-03 07:55:00,
2013-01-03 02:00:00,16.9,-4.3,30.56,WNW,297,0.0,0.0,38,0.00,,,0.00,VWS V14.01,2013-01-03 08:00:00,
2013-01-03 02:05:00,16.7,-4.5,30.56,NW,312,0.0,0.0,38,0.00,,,0.00,VWS V14.01,2013-01-03 08:05:00,
2013-01-03 02:10:00,16.7,-4.5,30.56,WNW,295,0.0,0.0,38,0.00,,,0.00,VWS V14.01,2013-01-03 08:10:00,
2013-01-03 02:15:00,16.7,-4.5,30.56,WNW,283,0.0,0.0,38,0.00,,,0.00,VWS V14.01,2013-01-03 08:15:00,
2013-01-03 02:20:00,16.7,-4.5,30.56,West,279,0.0,0.0,38,0.00,,,0.00,VWS V14.01,2013-01-03 08:20:00,
2013-01-03 02:25:00,16.3,-5.4,30.56,West,272,0.0,0.0,37,0.00,,,0.00,VWS V14.01,2013-01-03 08:25:00,
2013-01-03 02:31:00,16.2,-5.5,30.56,NNW,334,0.0,0.0,37,0.00,,,0.00,VWS V14.01,2013-01-03 08:31:00,
2013-01-03 02:36:00,16.2,-5.5,30.56,NW,308,0.0,0.0,37,0.00,,,0.00,VWS V14.01,2013-01-03 08:36:00,
2013-01-03 02:41:00,16.0,-5.7,30.56,NW,322,0.0,0.0,37,0.00,,,0.00,VWS V14.01,2013-01-03 08:41:00,
2013-01-03 02:46:00,16.0,-5.7,30.56,West,259,0.0,0.0,37,0.00,,,0.00,VWS V14.01,2013-01-03 08:46:00,
2013-01-03 02:51:00,16.0,-5.7,30.56,NW,318,0.0,0.0,37,0.00,,,0.00,VWS V14.01,2013-01-03 08:51:00,
2013-01-03 02:56:00,15.8,-5.8,30.59,NW,323,0.0,0.0,37,0.00,,,0.00,VWS V14.01,2013-01-03 08:56:00,
2013-01-03 03:01:00,15.8,-5.8,30.59,WNW,300,0.0,0.0,37,0.00,,,0.00,VWS V14.01,2013-01-03 09:01:00,
2013-01-03 03:06:00,15.8,-5.8,30.59,WSW,247,0.0,0.0,37,0.00,,,0.00,VWS V14.01,2013-01-03 09:06:00,
2013-01-03 03:11:00,15.8,-5.3,30.59,WNW,285,0.0,0.0,38,0.00,,,0.00,VWS V14.01,2013-01-03 09:11:00,
2013-01-03 03:16:00,15.4,-6.2,30.59,NNW,327,0.0,0.0,37,0.00,,,0.00,VWS V14.01,2013-01-03 09:16:00,
2013-01-03 03:21:00,15.4,-6.2,30.59,NW,305,0.0,0.0,37,0.00,,,0.00,VWS V14.01,2013-01-03 09:21:00,
2013-01-03 03:26:00,15.3,-6.9,30.59,West,263,0.0,0.0,36,0.00,,,0.00,VWS V14.01,2013-01-03 09:26:00,
2013-01-03 03:31:00,15.3,-6.3,30.59,NW,314,0.0,0.0,37,0.00,,,0.00,VWS V14.01,2013-01-03 09:31:00,
2013-01-03 03:36:00,15.3,-6.3,30.59,North,353,0.0,0.0,37,0.00,,,0.00,VWS V14.01,2013-01-03 09:36:00,
2013-01-03 03:41:00,15.3,-6.3,30.59,NNW,337,0.0,0.0,37,0.00,,,0.00,VWS V14.01,2013-01-03 09:41:00,
2013-01-03 03:46:00,15.3,-6.3,30.59,NNW,332,0.0,0.0,37,0.00,,,0.00,VWS V14.01,2013-01-03 09:46:00,
2013-01-03 03:51:00,15.1,-6.5,30.59,WNW,298,0.0,0.0,37,0.00,,,0.00,VWS V14.01,2013-01-03 09:51:00,
2013-01-03 03:56:00,14.9,-6.7,30.59,NW,304,0.0,0.0,37,0.00,,,0.00,VWS V14.01,2013-01-03 09:56:00,
2013-01-03 04:02:00,14.9,-6.7,30.59,WNW,298,0.0,0.0,37,0.00,,,0.00,VWS V14.01,2013-01-03 10:02:00,
2013-01-03 04:07:00,14.7,-6.8,30.59,NNW,346,0.0,0.0,37,0.00,,,0.00,VWS V14.01,2013-01-03 10:07:00,
2013-01-03 04:12:00,14.7,-6.8,30.59,WNW,286,0.0,0.0,37,0.00,,,0.00,VWS V14.01,2013-01-03 10:12:00,
2013-01-03 04:17:00,14.5,-7.0,30.59,WNW,291,0.0,0.0,37,0.00,,,0.00,VWS V14.01,2013-01-03 10:17:00,
2013-01-03 04:22:00,14.5,-7.0,30.59,NW,312,0.0,0.0,37,0.00,,,0.00,VWS V14.01,2013-01-03 10:22:00,
2013-01-03 04:27:00,14.4,-7.1,30.59,WNW,289,0.0,0.0,37,0.00,,,0.00,VWS V14.01,2013-01-03 10:27:00,
2013-01-03 04:32:00,14.4,-7.1,30.59,NW,320,0.0,0.0,37,0.00,,,0.00,VWS V14.01,2013-01-03 10:32:00,
2013-01-03 04:37:00,14.2,-7.9,30.59,NNW,328,0.0,0.0,36,0.00,,,0.00,VWS V14.01,2013-01-03 10:37:00,
2013-01-03 04:42:00,14.2,-7.3,30.62,NW,312,0.0,0.0,37,0.00,,,0.00,VWS V14.01,2013-01-03 10:42:00,
2013-01-03 04:47:00,14.2,-7.3,30.62,NW,310,0.0,0.0,37,0.00,,,0.00,VWS V14.01,2013-01-03 10:47:00,
2013-01-03 04:52:00,14.2,-7.3,30.62,NW,316,0.0,0.0,37,0.00,,,0.00,VWS V14.01,2013-01-03 10:52:00,
2013-01-03 04:57:00,14.0,-7.5,30.59,WNW,283,0.0,0.0,37,0.00,,,0.00,VWS V14.01,2013-01-03 10:57:00,
2013-01-03 05:02:00,13.8,-7.6,30.59,NW,307,0.0,0.0,37,0.00,,,0.00,VWS V14.01,2013-01-03 11:02:00,
2013-01-03 05:07:00,13.8,-7.6,30.59,WNW,289,0.0,0.0,37,0.00,,,0.00,VWS V14.01,2013-01-03 11:07:00,
2013-01-03 05:12:00,13.8,-7.6,30.62,NW,304,0.0,0.0,37,0.00,,,0.00,VWS V14.01,2013-01-03 11:12:00,
2013-01-03 05:17:00,13.6,-7.8,30.62,West,281,0.0,0.0,37,0.00,,,0.00,VWS V14.01,2013-01-03 11:17:00,
2013-01-03 05:23:00,13.5,-7.9,30.62,WNW,282,0.0,0.0,37,0.00,,,0.00,VWS V14.01,2013-01-03 11:23:00,
2013-01-03 05:28:00,13.3,-8.1,30.62,NW,311,0.0,0.0,37,0.00,,,0.00,VWS V14.01,2013-01-03 11:28:00,
2013-01-03 05:33:00,13.1,-8.3,30.62,West,268,0.0,0.0,37,0.00,,,0.00,VWS V14.01,2013-01-03 11:33:00,
2013-01-03 05:38:00,13.1,-8.3,30.62,NW,313,0.0,0.0,37,0.00,,,0.00,VWS V14.01,2013-01-03 11:38:00,
2013-01-03 05:43:00,12.9,-8.4,30.65,NNW,332,0.0,0.0,37,0.00,,,0.00,VWS V14.01,2013-01-03 11:43:00,
2013-01-03 05:48:00,12.9,-8.4,30.65,NW,316,0.0,0.0,37,0.00,,,0.00,VWS V14.01,2013-01-03 11:48:00,
2013-01-03 05:53:00,12.7,-8.6,30.65,NW,320,0.0,0.0,37,0.00,,,0.00,VWS V14.01,2013-01-03 11:53:00,
2013-01-03 05:58:00,12.6,-8.8,30.65,West,272,0.0,0.0,37,0.00,,,0.00,VWS V14.01,2013-01-03 11:58:00,
2013-01-03 06:03:00,12.2,-9.1,30.65,WNW,288,0.0,0.0,37,0.00,,,0.00,VWS V14.01,2013-01-03 12:03:00,
2013-01-03 06:08:00,12.0,-9.2,30.65,WNW,289,0.0,0.0,37,0.00,,,0.00,VWS V14.01,2013-01-03 12:08:00,
2013-01-03 06:13:00,11.8,-9.4,30.65,NW,324,0.0,0.0,37,0.00,,,0.00,VWS V14.01,2013-01-03 12:13:00,
2013-01-03 06:18:00,11.8,-9.4,30.65,NW,322,0.0,0.0,37,0.00,,,0.00,VWS V14.01,2013-01-03 12:18:00,
2013-01-03 06:23:00,11.8,-9.4,30.65,NW,324,0.0,0.0,37,0.00,,,0.00,VWS V14.01,2013-01-03 12:23:00,
2013-01-03 06:28:00,11.7,-9.6,30.65,WNW,284,0.0,0.0,37,0.00,,,0.00,VWS V14.01,2013-01-03 12:28:00,
2013-01-03 06:33:00,11.5,-9.7,30.65,NNW,331,0.0,0.0,37,0.00,,,0.00,VWS V14.01,2013-01-03 12:33:00,
2013-01-03 06:38:00,11.3,-9.9,30.65,NW,309,0.0,0.0,37,0.00,,,0.00,VWS V14.01,2013-01-03 12:38:00,
2013-01-03 06:44:00,11.3,-9.9,30.65,WNW,296,0.0,0.0,37,0.00,,,0.00,VWS V14.01,2013-01-03 12:44:00,
2013-01-03 06:49:00,11.3,-9.9,30.65,NNW,343,0.0,0.0,37,0.00,,,0.00,VWS V14.01,2013-01-03 12:49:00,
2013-01-03 06:54:00,11.3,-9.9,30.65,West,275,0.0,0.0,37,0.00,,,0.00,VWS V14.01,2013-01-03 12:54:00,
2013-01-03 06:59:00,11.1,-10.1,30.65,NW,319,0.0,0.0,37,0.00,,,0.00,VWS V14.01,2013-01-03 12:59:00,
2013-01-03 07:04:00,11.1,-10.1,30.65,WNW,284,0.0,0.0,37,0.00,,,0.00,VWS V14.01,2013-01-03 13:04:00,
2013-01-03 07:09:00,11.1,-10.1,30.65,West,266,0.0,0.0,37,0.00,,,0.00,VWS V14.01,2013-01-03 13:09:00,
2013-01-03 07:14:00,11.1,-10.1,30.65,NW,314,0.0,0.0,37,0.00,,,0.00,VWS V14.01,2013-01-03 13:14:00,
2013-01-03 07:19:00,11.1,-10.1,30.65,WNW,300,0.0,0.0,37,0.00,,,0.00,VWS V14.01,2013-01-03 13:19:00,
2013-01-03 07:24:00,11.1,-10.1,30.65,WNW,285,0.0,0.0,37,0.00,,,0.00,VWS V14.01,2013-01-03 13:24:00,
2013-01-03 07:29:00,11.1,-10.1,30.65,West,272,0.0,0.0,37,0.00,,,0.00,VWS V14.01,2013-01-03 13:29:00,
2013-01-03 07:34:00,11.3,-9.9,30.65,WNW,285,0.0,0.0,37,0.00,,,0.00,VWS V14.01,2013-01-03 13:34:00,
2013-01-03 07:40:00,11.3,-9.9,30.65,WNW,293,0.0,0.0,37,0.00,,,0.00,VWS V14.01,2013-01-03 13:40:00,
2013-01-03 07:45:00,11.3,-9.9,30.65,West,276,0.0,0.0,37,0.00,,,0.00,VWS V14.01,2013-01-03 13:45:00,
2013-01-03 07:50:00,11.1,-10.1,30.65,WNW,283,0.0,0.0,37,0.00,,,0.00,VWS V14.01,2013-01-03 13:50:00,
2013-01-03 07:55:00,11.1,-10.1,30.68,West,280,0.0,0.0,37,0.00,,,0.00,VWS V14.01,2013-01-03 13:55:00,
2013-01-03 08:00:00,10.8,-10.4,30.68,NW,304,0.0,0.0,37,0.00,,,0.00,VWS V14.01,2013-01-03 14:00:00,
2013-01-03 08:05:00,10.6,-10.5,30.68,NW,321,0.0,0.0,37,0.00,,,0.00,VWS V14.01,2013-01-03 14:05:00,
2013-01-03 08:10:00,10.4,-10.7,30.68,NW,316,0.0,0.0,37,0.00,,,0.00,VWS V14.01,2013-01-03 14:10:00,
2013-01-03 08:15:00,10.2,-10.9,30.68,West,275,0.0,0.0,37,0.00,,,0.00,VWS V14.01,2013-01-03 14:15:00,
2013-01-03 08:20:00,10.2,-10.9,30.68,NW,311,0.0,0.0,37,0.00,,,0.00,VWS V14.01,2013-01-03 14:20:00,
2013-01-03 08:25:00,10.0,-11.0,30.65,WNW,299,0.0,0.0,37,0.00,,,0.00,VWS V14.01,2013-01-03 14:25:00,
2013-01-03 08:30:00,10.0,-11.0,30.65,NW,310,0.0,0.0,37,0.00,,,0.00,VWS V14.01,2013-01-03 14:30:00,
2013-01-03 08:35:00,10.0,-11.0,30.65,West,266,0.0,0.0,37,0.00,,,0.00,VWS V14.01,2013-01-03 14:35:00,
2013-01-03 08:40:00,9.9,-11.2,30.68,WNW,302,0.0,0.0,37,0.00,,,0.00,VWS V14.01,2013-01-03 14:40:00,
2013-01-03 08:45:00,9.7,-11.4,30.68,WNW,295,0.0,0.0,37,0.00,,,0.00,VWS V14.01,2013-01-03 14:45:00,
2013-01-03 08:50:00,9.7,-11.4,30.68,NW,307,0.0,0.0,37,0.00,,,0.00,VWS V14.01,2013-01-03 14:50:00,
2013-01-03 08:56:00,9.7,-11.4,30.68,West,279,0.0,0.0,37,0.00,,,0.00,VWS V14.01,2013-01-03 14:56:00,
2013-01-03 09:01:00,9.9,-11.2,30.68,WNW,290,0.0,0.0,37,0.00,,,0.00,VWS V14.01,2013-01-03 15:01:00,
2013-01-03 09:06:00,9.9,-11.2,30.68,WNW,303,0.0,0.0,37,0.00,,,0.00,VWS V14.01,2013-01-03 15:06:00,
2013-01-03 09:11:00,10.0,-11.0,30.68,NW,307,0.0,0.0,37,0.00,,,0.00,VWS V14.01,2013-01-03 15:11:00,
2013-01-03 09:16:00,9.9,-11.2,30.68,West,273,0.0,0.0,37,0.00,,,0.00,VWS V14.01,2013-01-03 15:16:00,
2013-01-03 09:21:00,10.0,-11.0,30.68,West,269,0.0,0.0,37,0.00,,,0.00,VWS V14.01,2013-01-03 15:21:00,
2013-01-03 09:26:00,10.0,-11.0,30.71,West,276,0.0,0.0,37,0.00,,,0.00,VWS V14.01,2013-01-03 15:26:00,
2013-01-03 09:31:00,10.2,-10.9,30.71,WNW,297,0.0,0.0,37,0.00,,,0.00,VWS V14.01,2013-01-03 15:31:00,
2013-01-03 09:36:00,10.2,-10.9,30.71,WSW,253,0.0,0.0,37,0.00,,,0.00,VWS V14.01,2013-01-03 15:36:00,
2013-01-03 09:41:00,10.2,-10.9,30.71,WNW,291,0.0,0.0,37,0.00,,,0.00,VWS V14.01,2013-01-03 15:41:00,
2013-01-03 09:46:00,10.2,-10.9,30.71,WNW,287,0.0,0.0,37,0.00,,,0.00,VWS V14.01,2013-01-03 15:46:00,
2013-01-03 09:51:00,10.2,-10.9,30.71,WNW,302,0.0,0.0,37,0.00,,,0.00,VWS V14.01,2013-01-03 15:51:00,
2013-01-03 09:56:00,10.2,-10.9,30.71,West,281,0.0,0.0,37,0.00,,,0.00,VWS V14.01,2013-01-03 15:56:00,
2013-01-03 10:01:00,10.2,-10.9,30.71,NW,318,0.0,0.0,37,0.00,,,0.00,VWS V14.01,2013-01-03 16:01:00,
2013-01-03 10:06:00,10.2,-10.9,30.71,NNW,342,0.0,0.0,37,0.00,,,0.00,VWS V14.01,2013-01-03 16:06:00,
2013-01-03 10:11:00,10.2,-10.9,30.71,West,280,0.0,0.0,37,0.00,,,0.00,VWS V14.01,2013-01-03 16:11:00,
2013-01-03 10:16:00,10.2,-10.9,30.71,West,268,0.0,0.0,37,0.00,,,0.00,VWS V14.01,2013-01-03 16:16:00,
2013-01-03 10:21:00,10.2,-10.9,30.71,West,281,0.0,0.0,37,0.00,,,0.00,VWS V14.01,2013-01-03 16:21:00,
2013-01-03 10:26:00,10.2,-10.9,30.71,West,272,0.0,0.0,37,0.00,,,0.00,VWS V14.01,2013-01-03 16:26:00,
2013-01-03 10:32:00,10.2,-10.9,30.71,West,278,0.0,0.0,37,0.00,,,0.00,VWS V14.01,2013-01-03 16:32:00,
2013-01-03 10:37:00,10.4,-10.7,30.71,West,276,0.0,0.0,37,0.00,,,0.00,VWS V14.01,2013-01-03 16:37:00,
2013-01-03 10:42:00,10.6,-10.5,30.71,West,276,0.0,0.0,37,0.00,,,0.00,VWS V14.01,2013-01-03 16:42:00,
2013-01-03 10:47:00,10.8,-10.4,30.71,WSW,252,0.0,0.0,37,0.00,,,0.00,VWS V14.01,2013-01-03 16:47:00,
2013-01-03 10:52:00,10.6,-10.5,30.71,West,278,0.0,0.0,37,0.00,,,0.00,VWS V14.01,2013-01-03 16:52:00,
2013-01-03 10:57:00,10.8,-10.4,30.71,West,264,0.0,0.0,37,0.00,,,0.00,VWS V14.01,2013-01-03 16:57:00,
2013-01-03 11:02:00,10.9,-10.2,30.71,SW,234,0.0,0.0,37,0.00,,,0.00,VWS V14.01,2013-01-03 17:02:00,
2013-01-03 11:07:00,10.8,-10.4,30.71,WNW,291,0.0,0.0,37,0.00,,,0.00,VWS V14.01,2013-01-03 17:07:00,
2013-01-03 11:12:00,10.8,-10.4,30.71,WSW,251,0.0,0.0,37,0.00,,,0.00,VWS V14.01,2013-01-03 17:12:00,
2013-01-03 11:17:00,10.4,-10.7,30.71,WSW,239,0.0,0.0,37,0.00,,,0.00,VWS V14.01,2013-01-03 17:17:00,
2013-01-03 11:22:00,10.0,-11.0,30.71,West,280,0.0,0.0,37,0.00,,,0.00,VWS V14.01,2013-01-03 17:22:00,
2013-01-03 11:27:00,10.4,-10.7,30.71,WSW,246,0.0,0.0,37,0.00,,,0.00,VWS V14.01,2013-01-03 17:27:00,
2013-01-03 11:32:00,10.2,-10.9,30.71,West,263,0.0,0.0,37,0.00,,,0.00,VWS V14.01,2013-01-03 17:32:00,
2013-01-03 11:37:00,10.2,-10.9,30.71,WNW,291,0.0,0.0,37,0.00,,,0.00,VWS V14.01,2013-01-03 17:37:00,
2013-01-03 11:42:00,9.9,-11.2,30.71,WNW,289,0.0,0.0,37,0.00,,,0.00,VWS V14.01,2013-01-03 17:42:00,
2013-01-03 11:47:00,9.9,-11.2,30.71,West,271,0.0,0.0,37,0.00,,,0.00,VWS V14.01,2013-01-03 17:47:00,
2013-01-03 11:52:00,9.7,-11.4,30.71,WSW,255,0.0,0.0,37,0.00,,,0.00,VWS V14.01,2013-01-03 17:52:00,
2013-01-03 11:57:00,10.0,-11.0,30.71,WSW,238,0.0,0.0,37,0.00,,,0.00,VWS V14.01,2013-01-03 17:57:00,
2013-01-03 12:02:00,9.9,-11.2,30.71,West,265,0.0,0.0,37,0.00,,,0.00,VWS V14.01,2013-01-03 18:02:00,
2013-01-03 12:07:00,9.7,-11.4,30.71,West,278,0.0,0.0,37,0.00,,,0.00,VWS V14.01,2013-01-03 18:07:00,
2013-01-03 12:12:00,9.9,-11.2,30.68,WSW,251,0.0,0.0,37,0.00,,,0.00,VWS V14.01,2013-01-03 18:12:00,
2013-01-03 12:17:00,9.7,-11.4,30.68,WSW,252,0.0,0.0,37,0.00,,,0.00,VWS V14.01,2013-01-03 18:17:00,
2013-01-03 12:23:00,9.9,-11.2,30.68,West,261,0.0,0.0,37,0.00,,,0.00,VWS V14.01,2013-01-03 18:23:00,
2013-01-03 12:28:00,9.9,-11.2,30.68,SW,222,0.0,0.0,37,0.00,,,0.00,VWS V14.01,2013-01-03 18:28:00,
2013-01-03 12:33:00,9.9,-11.2,30.68,WSW,238,0.0,0.0,37,0.00,,,0.00,VWS V14.01,2013-01-03 18:33:00,
2013-01-03 12:38:00,10.2,-10.9,30.68,SW,230,0.0,0.0,37,0.00,,,0.00,VWS V14.01,2013-01-03 18:38:00,
2013-01-03 12:43:00,10.2,-10.9,30.68,SW,218,0.0,0.0,37,0.00,,,0.00,VWS V14.01,2013-01-03 18:43:00,
2013-01-03 12:48:00,10.6,-10.5,30.68,WSW,247,0.0,0.0,37,0.00,,,0.00,VWS V14.01,2013-01-03 18:48:00,
2013-01-03 12:53:00,10.9,-10.2,30.68,West,264,0.0,0.0,37,0.00,,,0.00,VWS V14.01,2013-01-03 18:53:00,
2013-01-03 12:58:00,10.8,-10.4,30.68,WSW,248,0.0,0.0,37,0.00,,,0.00,VWS V14.01,2013-01-03 18:58:00,
2013-01-03 13:03:00,10.6,-10.5,30.68,WNW,285,0.0,0.0,37,0.00,,,0.00,VWS V14.01,2013-01-03 19:03:00,
2013-01-03 13:08:00,10.2,-10.9,30.68,WSW,242,0.0,0.0,37,0.00,,,0.00,VWS V14.01,2013-01-03 19:08:00,
2013-01-03 13:13:00,10.4,-10.7,30.68,SSW,209,0.0,0.0,37,0.00,,,0.00,VWS V14.01,2013-01-03 19:13:00,
2013-01-03 13:18:00,10.2,-10.9,30.68,WSW,249,0.0,0.0,37,0.00,,,0.00,VWS V14.01,2013-01-03 19:18:00,
2013-01-03 13:55:00,11.7,-9.6,30.65,SSW,212,0.0,0.0,37,0.00,,,0.00,VWS V14.01,2013-01-03 19:55:00,
2013-01-03 14:00:00,11.7,-9.6,30.65,WSW,237,0.0,0.0,37,0.00,,,0.00,VWS V14.01,2013-01-03 20:00:00,
2013-01-03 14:05:00,12.0,-9.2,30.65,SW,224,0.0,0.0,37,0.00,,,0.00,VWS V14.01,2013-01-03 20:05:00,
2013-01-03 14:10:00,12.2,-9.1,30.68,SW,233,0.0,0.0,37,0.00,,,0.00,VWS V14.01,2013-01-03 20:10:00,
2013-01-03 14:15:00,12.2,-9.1,30.68,WSW,242,0.0,0.0,37,0.00,,,0.00,VWS V14.01,2013-01-03 20:15:00,
2013-01-03 14:20:00,12.4,-8.9,30.68,West,259,0.0,0.0,37,0.00,,,0.00,VWS V14.01,2013-01-03 20:20:00,
2013-01-03 14:25:00,12.6,-8.8,30.68,SW,223,0.0,0.0,37,0.00,,,0.00,VWS V14.01,2013-01-03 20:25:00,
2013-01-03 14:30:00,12.7,-8.6,30.68,WSW,254,0.0,0.0,37,0.00,,,0.00,VWS V14.01,2013-01-03 20:30:00,
2013-01-03 14:35:00,12.7,-8.6,30.68,SW,218,0.0,0.0,37,0.00,,,0.00,VWS V14.01,2013-01-03 20:35:00,
2013-01-03 14:40:00,12.9,-8.4,30.68,SW,233,0.0,0.0,37,0.00,,,0.00,VWS V14.01,2013-01-03 20:40:00,
2013-01-03 14:45:00,13.1,-8.3,30.68,SSW,213,0.0,0.0,37,0.00,,,0.00,VWS V14.01,2013-01-03 20:45:00,
2013-01-03 14:50:00,13.5,-7.9,30.68,West,260,0.0,0.0,37,0.00,,,0.00,VWS V14.01,2013-01-03 20:50:00,
2013-01-03 14:55:00,13.3,-8.1,30.68,WSW,242,0.0,0.0,37,0.00,,,0.00,VWS V14.01,2013-01-03 20:55:00,
2013-01-03 15:00:00,13.5,-7.9,30.68,SSW,211,0.0,0.0,37,0.00,,,0.00,VWS V14.01,2013-01-03 21:00:00,
2013-01-03 15:06:00,13.6,-7.8,30.68,SW,232,0.0,0.0,37,0.00,,,0.00,VWS V14.01,2013-01-03 21:06:00,
2013-01-03 15:11:00,13.8,-7.6,30.68,SSW,210,0.0,0.0,37,0.00,,,0.00,VWS V14.01,2013-01-03 21:11:00,
2013-01-03 15:16:00,14.4,-18.4,30.68,SSW,213,0.0,0.0,21,0.00,,,0.00,VWS V14.01,2013-01-03 21:16:00,
2013-01-03 15:21:00,14.4,-18.4,30.68,WSW,241,0.0,0.0,21,0.00,,,0.00,VWS V14.01,2013-01-03 21:21:00,
2013-01-03 15:26:00,14.4,-18.4,30.68,WSW,241,0.0,0.0,21,0.00,,,0.00,VWS V14.01,2013-01-03 21:26:00,
2013-01-03 15:31:00,14.4,-18.4,30.68,WSW,249,0.0,0.0,21,0.00,,,0.00,VWS V14.01,2013-01-03 21:31:00,
2013-01-03 15:36:00,14.5,-18.3,30.68,WSW,241,0.0,0.0,21,0.00,,,0.00,VWS V14.01,2013-01-03 21:36:00,
2013-01-03 15:41:00,14.5,-18.3,30.68,SW,236,0.0,0.0,21,0.00,,,0.00,VWS V14.01,2013-01-03 21:41:00,
2013-01-03 15:46:00,14.5,-18.3,30.68,WSW,239,0.0,0.0,21,0.00,,,0.00,VWS V14.01,2013-01-03 21:46:00,
2013-01-03 15:51:00,14.7,-18.1,30.68,SW,221,0.0,0.0,21,0.00,,,0.00,VWS V14.01,2013-01-03 21:51:00,
2013-01-03 15:56:00,14.5,-18.3,30.68,SSW,213,0.0,0.0,21,0.00,,,0.00,VWS V14.01,2013-01-03 21:56:00,
2013-01-03 16:01:00,14.4,-15.8,30.68,SSW,197,0.0,0.0,24,0.00,,,0.00,VWS V14.01,2013-01-03 22:01:00,
2013-01-03 16:06:00,14.4,-15.8,30.68,WSW,253,0.0,0.0,24,0.00,,,0.00,VWS V14.01,2013-01-03 22:06:00,
2013-01-03 16:11:00,14.0,-16.1,30.68,SW,230,0.0,0.0,24,0.00,,,0.00,VWS V14.01,2013-01-03 22:11:00,
2013-01-03 16:17:00,13.8,-16.3,30.68,WSW,253,0.0,0.0,24,0.00,,,0.00,VWS V14.01,2013-01-03 22:17:00,
2013-01-03 16:22:00,13.6,-16.4,30.68,SW,230,0.0,0.0,24,0.00,,,0.00,VWS V14.01,2013-01-03 22:22:00,
2013-01-03 16:27:00,13.5,-16.6,30.68,SW,217,0.0,0.0,24,0.00,,,0.00,VWS V14.01,2013-01-03 22:27:00,
2013-01-03 16:32:00,13.1,-16.9,30.68,WSW,237,0.0,0.0,24,0.00,,,0.00,VWS V14.01,2013-01-03 22:32:00,
2013-01-03 16:37:00,12.7,-17.2,30.68,SSW,212,0.0,0.0,24,0.00,,,0.00,VWS V14.01,2013-01-03 22:37:00,
2013-01-03 16:42:00,12.6,-17.4,30.68,WSW,245,0.0,0.0,24,0.00,,,0.00,VWS V14.01,2013-01-03 22:42:00,
2013-01-03 16:47:00,12.4,-17.5,30.68,SW,221,0.0,0.0,24,0.00,,,0.00,VWS V14.01,2013-01-03 22:47:00,
2013-01-03 16:52:00,12.2,-17.7,30.68,SSW,207,0.0,0.0,24,0.00,,,0.00,VWS V14.01,2013-01-03 22:52:00,
2013-01-03 16:57:00,12.2,-17.7,30.68,SW,221,0.0,0.0,24,0.00,,,0.00,VWS V14.01,2013-01-03 22:57:00,
2013-01-03 17:02:00,12.0,-17.8,30.68,SW,236,0.0,0.0,24,0.00,,,0.00,VWS V14.01,2013-01-03 23:02:00,
2013-01-03 17:07:00,11.8,-18.0,30.68,WSW,243,0.0,0.0,24,0.00,,,0.00,VWS V14.01,2013-01-03 23:07:00,
2013-01-03 17:12:00,11.7,-18.1,30.68,SW,216,0.0,0.0,24,0.00,,,0.00,VWS V14.01,2013-01-03 23:12:00,
2013-01-03 17:17:00,11.3,-18.5,30.68,SW,221,0.0,0.0,24,0.00,,,0.00,VWS V14.01,2013-01-03 23:17:00,
2013-01-03 17:23:00,11.1,-18.6,30.68,SW,231,0.0,0.0,24,0.00,,,0.00,VWS V14.01,2013-01-03 23:23:00,
2013-01-03 17:28:00,11.1,-18.6,30.68,SW,219,0.0,0.0,24,0.00,,,0.00,VWS V14.01,2013-01-03 23:28:00,
2013-01-03 17:33:00,10.9,-18.8,30.68,SW,220,0.0,0.0,24,0.00,,,0.00,VWS V14.01,2013-01-03 23:33:00,
2013-01-03 17:38:00,10.8,-18.9,30.68,SW,214,0.0,0.0,24,0.00,,,0.00,VWS V14.01,2013-01-03 23:38:00,
2013-01-03 17:43:00,10.8,-18.9,30.65,SSW,208,0.0,0.0,24,0.00,,,0.00,VWS V14.01,2013-01-03 23:43:00,
2013-01-03 17:48:00,10.4,-19.2,30.65,SW,223,0.0,0.0,24,0.00,,,0.00,VWS V14.01,2013-01-03 23:48:00,
2013-01-03 17:53:00,10.4,-19.2,30.65,South,186,0.0,0.0,24,0.00,,,0.00,VWS V14.01,2013-01-03 23:53:00,
2013-01-03 17:58:00,10.2,-19.4,30.65,SW,217,0.0,0.0,24,0.00,,,0.00,VWS V14.01,2013-01-03 23:58:00,
2013-01-03 18:03:00,10.0,-19.5,30.65,SSW,197,0.0,0.0,24,0.00,,,0.00,VWS V14.01,2013-01-04 00:03:00,
2013-01-03 18:08:00,9.9,-19.7,30.65,SSW,192,0.0,0.0,24,0.00,,,0.00,VWS V14.01,2013-01-04 00:08:00,
2013-01-03 18:13:00,9.5,-20.0,30.65,SSW,200,0.0,0.0,24,0.00,,,0.00,VWS V14.01,2013-01-04 00:13:00,
2013-01-03 18:19:00,9.3,-20.2,30.65,SW,217,0.0,0.0,24,0.00,,,0.00,VWS V14.01,2013-01-04 00:19:00,
2013-01-03 18:24:00,9.3,-20.2,30.65,SW,221,0.0,0.0,24,0.00,,,0.00,VWS V14.01,2013-01-04 00:24:00,
2013-01-03 18:29:00,9.1,-20.3,30.65,SSW,209,0.0,0.0,24,0.00,,,0.00,VWS V14.01,2013-01-04 00:29:00,
2013-01-03 18:34:00,9.1,-20.3,30.65,SSW,211,0.0,0.0,24,0.00,,,0.00,VWS V14.01,2013-01-04 00:34:00,
2013-01-03 18:39:00,9.1,-20.3,30.65,SSW,213,0.0,0.0,24,0.00,,,0.00,VWS V14.01,2013-01-04 00:39:00,
2013-01-03 18:44:00,9.1,-20.3,30.65,SSW,198,0.0,0.0,24,0.00,,,0.00,VWS V14.01,2013-01-04 00:44:00,
2013-01-03 18:49:00,9.1,-20.3,30.65,SSW,207,0.0,0.0,24,0.00,,,0.00,VWS V14.01,2013-01-04 00:49:00,
2013-01-03 18:54:00,9.3,-20.2,30.62,South,176,0.0,0.0,24,0.00,,,0.00,VWS V14.01,2013-01-04 00:54:00,
2013-01-03 18:59:00,9.3,-20.2,30.62,SSW,195,0.0,0.0,24,0.00,,,0.00,VWS V14.01,2013-01-04 00:59:00,
2013-01-03 19:04:00,9.3,-20.2,30.62,SW,214,0.0,0.0,24,0.00,,,0.00,VWS V14.01,2013-01-04 01:04:00,
2013-01-03 19:09:00,9.3,-20.2,30.62,South,176,0.0,0.0,24,0.00,,,0.00,VWS V14.01,2013-01-04 01:09:00,
2013-01-03 19:14:00,9.5,-20.0,30.62,SSW,207,0.0,0.0,24,0.00,,,0.00,VWS V14.01,2013-01-04 01:14:00,
2013-01-03 19:19:00,9.7,-19.9,30.62,SSW,200,0.0,0.0,24,0.00,,,0.00,VWS V14.01,2013-01-04 01:19:00,
2013-01-03 19:24:00,10.2,-19.4,30.62,South,189,0.0,0.0,24,0.00,,,0.00,VWS V14.01,2013-01-04 01:24:00,
2013-01-03 19:29:00,10.4,-19.2,30.62,SW,235,0.0,0.0,24,0.00,,,0.00,VWS V14.01,2013-01-04 01:29:00,
2013-01-03 19:34:00,10.4,-19.2,30.62,SSW,212,0.0,0.0,24,0.00,,,0.00,VWS V14.01,2013-01-04 01:34:00,
2013-01-03 19:39:00,10.8,-18.9,30.62,SSW,200,0.0,0.0,24,0.00,,,0.00,VWS V14.01,2013-01-04 01:39:00,
2013-01-03 19:44:00,10.9,-18.8,30.62,SSW,204,0.0,0.0,24,0.00,,,0.00,VWS V14.01,2013-01-04 01:44:00,
2013-01-03 19:50:00,11.3,-18.5,30.62,SSW,205,0.0,0.0,24,0.00,,,0.00,VWS V14.01,2013-01-04 01:50:00,
2013-01-03 19:55:00,11.7,-18.1,30.59,SW,222,0.0,0.0,24,0.00,,,0.00,VWS V14.01,2013-01-04 01:55:00,
2013-01-03 20:00:00,11.8,-18.0,30.59,SSW,209,0.0,0.0,24,0.00,,,0.00,VWS V14.01,2013-01-04 02:00:00,
2013-01-03 20:05:00,12.2,-17.7,30.59,WSW,238,0.0,0.0,24,0.00,,,0.00,VWS V14.01,2013-01-04 02:05:00,
2013-01-03 20:10:00,12.6,-17.4,30.59,SSW,213,0.0,0.0,24,0.00,,,0.00,VWS V14.01,2013-01-04 02:10:00,
2013-01-03 20:15:00,12.7,-17.2,30.59,SW,224,0.0,0.0,24,0.00,,,0.00,VWS V14.01,2013-01-04 02:15:00,
2013-01-03 20:20:00,12.7,-17.2,30.59,SW,218,0.0,0.0,24,0.00,,,0.00,VWS V14.01,2013-01-04 02:20:00,
2013-01-03 20:25:00,12.9,-17.1,30.59,SW,227,0.0,0.0,24,0.00,,,0.00,VWS V14.01,2013-01-04 02:25:00,
2013-01-03 20:30:00,12.9,-17.1,30.59,SW,232,0.0,0.0,24,0.00,,,0.00,VWS V14.01,2013-01-04 02:30:00,
2013-01-03 20:35:00,12.9,-17.1,30.59,SSE,157,0.0,0.0,24,0.00,,,0.00,VWS V14.01,2013-01-04 02:35:00,
2013-01-03 20:40:00,12.9,-17.1,30.56,SSW,210,0.0,0.0,24,0.00,,,0.00,VWS V14.01,2013-01-04 02:40:00,
2013-01-03 20:46:00,12.9,-17.1,30.56,SSW,194,0.0,0.0,24,0.00,,,0.00,VWS V14.01,2013-01-04 02:46:00,
2013-01-03 20:51:00,13.1,-16.9,30.56,SSW,209,0.0,0.0,24,0.00,,,0.00,VWS V14.01,2013-01-04 02:51:00,
2013-01-03 20:56:00,12.9,-17.1,30.59,SSW,210,0.0,0.0,24,0.00,,,0.00,VWS V14.01,2013-01-04 02:56:00,
2013-01-03 21:01:00,12.9,-17.1,30.59,SW,220,0.0,0.0,24,0.00,,,0.00,VWS V14.01,2013-01-04 03:01:00,
2013-01-03 21:06:00,12.9,-17.1,30.59,SW,223,0.0,0.0,24,0.00,,,0.00,VWS V14.01,2013-01-04 03:06:00,
2013-01-03 21:11:00,12.9,-17.1,30.56,SSW,204,0.0,0.0,24,0.00,,,0.00,VWS V14.01,2013-01-04 03:11:00,
2013-01-03 21:16:00,12.9,-17.1,30.56,SSW,208,0.0,0.0,24,0.00,,,0.00,VWS V14.01,2013-01-04 03:16:00,
2013-01-03 21:21:00,12.9,-17.1,30.56,SSW,212,0.0,0.0,24,0.00,,,0.00,VWS V14.01,2013-01-04 03:21:00,
2013-01-03 21:26:00,12.7,-17.2,30.56,SSW,195,0.0,0.0,24,0.00,,,0.00,VWS V14.01,2013-01-04 03:26:00,
2013-01-03 21:31:00,12.7,-17.2,30.56,SW,215,0.0,0.0,24,0.00,,,0.00,VWS V14.01,2013-01-04 03:31:00,
2013-01-03 21:36:00,12.7,-17.2,30.56,SW,232,0.0,0.0,24,0.00,,,0.00,VWS V14.01,2013-01-04 03:36:00,
2013-01-03 21:41:00,12.7,-17.2,30.56,SSW,212,0.0,0.0,24,0.00,,,0.00,VWS V14.01,2013-01-04 03:41:00,
2013-01-03 21:46:00,12.9,-17.1,30.56,SSW,203,0.0,0.0,24,0.00,,,0.00,VWS V14.01,2013-01-04 03:46:00,
2013-01-03 21:51:00,12.9,-17.1,30.56,SW,227,0.0,0.0,24,0.00,,,0.00,VWS V14.01,2013-01-04 03:51:00,
2013-01-03 21:57:00,13.3,-16.8,30.56,SSW,203,0.0,0.0,24,0.00,,,0.00,VWS V14.01,2013-01-04 03:57:00,
2013-01-03 22:02:00,13.3,-16.8,30.56,SSW,211,0.0,0.0,24,0.00,,,0.00,VWS V14.01,2013-01-04 04:02:00,
2013-01-03 22:07:00,13.5,-16.6,30.56,SSW,201,0.0,0.0,24,0.00,,,0.00,VWS V14.01,2013-01-04 04:07:00,
2013-01-03 22:12:00,13.5,-16.6,30.56,WSW,248,0.0,0.0,24,0.00,,,0.00,VWS V14.01,2013-01-04 04:12:00,
2013-01-03 22:17:00,13.6,-16.4,30.56,SSW,213,0.0,0.0,24,0.00,,,0.00,VWS V14.01,2013-01-04 04:17:00,
2013-01-03 22:22:00,13.6,-16.4,30.56,SSW,211,0.0,0.0,24,0.00,,,0.00,VWS V14.01,2013-01-04 04:22:00,
2013-01-03 22:27:00,13.6,-16.4,30.56,SW,216,0.0,0.0,24,0.00,,,0.00,VWS V14.01,2013-01-04 04:27:00,
2013-01-03 22:32:00,13.6,-16.4,30.56,SSW,210,0.0,0.0,24,0.00,,,0.00,VWS V14.01,2013-01-04 04:32:00,
2013-01-03 22:37:00,13.6,-16.4,30.56,SSW,208,0.0,0.0,24,0.00,,,0.00,VWS V14.01,2013-01-04 04:37:00,
2013-01-03 22:42:00,13.8,-16.3,30.56,SW,234,0.0,0.0,24,0.00,,,0.00,VWS V14.01,2013-01-04 04:42:00,
2013-01-03 22:47:00,14.0,-2.5,30.56,SW,225,0.0,0.0,47,0.00,,,0.00,VWS V14.01,2013-01-04 04:47:00,
2013-01-03 22:53:00,14.2,-2.3,30.56,SW,218,0.0,0.0,47,0.00,,,0.00,VWS V14.01,2013-01-04 04:53:00,
2013-01-03 22:58:00,14.4,-2.2,30.53,SW,217,0.0,0.0,47,0.00,,,0.00,VWS V14.01,2013-01-04 04:58:00,
2013-01-03 23:00:00,14.4,-2.6,30.53,SW,217,0.0,0.0,46,0.00,,,0.00,VWS V14.01,2013-01-04 05:00:00,
2013-01-03 23:02:00,14.4,-2.6,30.53,SSW,213,0.0,0.0,46,0.00,,,0.00,VWS V14.01,2013-01-04 05:02:00,
2013-01-03 23:03:00,14.4,-2.6,30.53,SW,232,0.0,0.0,46,0.00,,,0.00,VWS V14.01,2013-01-04 05:03:00,
2013-01-03 23:04:00,14.5,-2.5,30.53,SW,220,0.0,0.0,46,0.00,,,0.00,VWS V14.01,2013-01-04 05:04:00,
2013-01-03 23:09:00,14.5,-2.5,30.53,South,187,0.0,0.0,46,0.00,,,0.00,VWS V14.01,2013-01-04 05:09:00,
2013-01-03 23:14:00,14.5,-2.5,30.53,SSW,211,0.0,0.0,46,0.00,,,0.00,VWS V14.01,2013-01-04 05:14:00,
2013-01-03 23:19:00,14.7,-2.3,30.53,SSE,166,0.0,0.0,46,0.00,,,0.00,VWS V14.01,2013-01-04 05:19:00,
2013-01-03 23:24:00,14.9,-2.1,30.53,SW,221,0.0,0.0,46,0.00,,,0.00,VWS V14.01,2013-01-04 05:24:00,
2013-01-03 23:29:00,14.9,-2.1,30.53,SSW,205,0.0,0.0,46,0.00,,,0.00,VWS V14.01,2013-01-04 05:29:00,
2013-01-03 23:34:00,15.1,-2.0,30.53,SSW,204,0.0,0.0,46,0.00,,,0.00,VWS V14.01,2013-01-04 05:34:00,
2013-01-03 23:39:00,15.1,-2.0,30.53,SW,217,0.0,0.0,46,0.00,,,0.00,VWS V14.01,2013-01-04 05:39:00,
2013-01-03 23:45:00,15.1,-2.4,30.53,SSW,192,0.0,0.0,45,0.00,,,0.00,VWS V14.01,2013-01-04 05:45:00,
2013-01-03 23:50:00,15.1,-2.4,30.53,SSW,213,0.0,0.0,45,0.00,,,0.00,VWS V14.01,2013-01-04 05:50:00,
2013-01-03 23:55:00,15.1,-2.4,30.53,SSW,200,0.0,0.0,45,0.00,,,0.00,VWS V14.01,2013-01-04 05:55:00,